createdAt,value
2023-05-05T00:00:56.974Z,84.06
2023-05-05T00:03:25.666Z,84.53
2023-05-05T00:05:54.564Z,86.09
2023-05-05T00:08:22.621Z,87.23
2023-05-05T00:10:52.028Z,88.44
2023-05-05T00:13:20.949Z,90.44
2023-05-05T00:15:50.077Z,93.74
2023-05-05T00:18:18.235Z,93.46
2023-05-05T00:20:49.463Z,93.16
2023-05-05T00:23:17.007Z,91.27
2023-05-05T00:25:44.529Z,91.19
2023-05-05T00:28:14.098Z,90.27
2023-05-05T00:30:41.531Z,89.82
2023-05-05T00:33:10.334Z,90.12
2023-05-05T00:35:37.668Z,90.40
2023-05-05T00:38:05.178Z,90.16
2023-05-05T00:40:33.037Z,90.44
2023-05-05T00:43:00.427Z,91.47
2023-05-05T00:45:28.241Z,92.00
2023-05-05T00:47:57.941Z,91.31
2023-05-05T00:50:27.448Z,91.34
2023-05-05T00:52:57.002Z,90.98
2023-05-05T00:55:24.685Z,91.38
2023-05-05T00:57:52.340Z,91.84
2023-05-05T01:00:19.696Z,93.11
2023-05-05T01:02:47.319Z,91.77
2023-05-05T01:05:16.122Z,91.61
2023-05-05T01:07:43.610Z,91.23
2023-05-05T01:10:22.203Z,91.23
2023-05-05T01:13:00.371Z,91.57
2023-05-05T01:15:36.803Z,92.64
2023-05-05T01:18:11.796Z,92.18
2023-05-05T01:20:49.631Z,92.59
2023-05-05T01:23:35.091Z,93.30
2023-05-05T01:26:33.060Z,93.00
2023-05-05T01:29:29.286Z,92.71
2023-05-05T01:32:01.778Z,91.44
2023-05-05T01:35:02.300Z,91.80
2023-05-05T01:37:38.462Z,92.26
2023-05-05T01:40:08.351Z,92.52
2023-05-05T01:42:38.182Z,92.32
2023-05-05T01:45:08.233Z,93.36
2023-05-05T01:47:37.864Z,93.35
2023-05-05T01:50:06.820Z,93.30
2023-05-05T01:52:36.480Z,93.96
2023-05-05T01:55:05.127Z,93.96
2023-05-05T01:57:33.260Z,94.22
2023-05-05T02:00:05.975Z,94.07
2023-05-05T02:02:44.649Z,93.66
2023-05-05T02:05:12.087Z,93.83
2023-05-05T02:07:40.000Z,93.51
2023-05-05T02:10:08.314Z,94.16
2023-05-05T02:12:37.581Z,94.22
2023-05-05T02:15:05.433Z,94.17
2023-05-05T02:17:33.152Z,92.51
2023-05-05T02:20:02.219Z,93.15
2023-05-05T02:22:29.585Z,93.33
2023-05-05T02:24:57.175Z,93.47
2023-05-05T02:27:24.563Z,93.29
2023-05-05T02:29:59.178Z,93.42
2023-05-05T02:32:38.187Z,94.26
2023-05-05T02:35:32.656Z,93.45
2023-05-05T02:38:04.882Z,92.97
2023-05-05T02:40:34.532Z,92.21
2023-05-05T02:43:08.263Z,93.00
2023-05-05T02:45:35.706Z,93.17
2023-05-05T02:48:04.256Z,93.11
2023-05-05T02:50:32.298Z,92.74
2023-05-05T02:53:00.531Z,92.99
2023-05-05T02:55:33.344Z,92.78
2023-05-05T02:58:03.235Z,91.56
2023-05-05T03:00:41.753Z,90.78
2023-05-05T03:03:26.462Z,89.48
2023-05-05T03:06:02.788Z,89.47
2023-05-05T03:08:37.208Z,90.08
2023-05-05T03:11:07.437Z,90.67
2023-05-05T03:13:37.337Z,91.68
2023-05-05T03:16:06.892Z,92.21
2023-05-05T03:18:34.826Z,93.85
2023-05-05T03:21:08.633Z,94.56
2023-05-05T03:23:36.944Z,96.27
2023-05-05T03:26:05.028Z,95.11
2023-05-05T03:28:32.621Z,94.48
2023-05-05T03:31:01.149Z,96.39
2023-05-05T03:33:28.378Z,93.61
2023-05-05T03:35:56.088Z,94.70
2023-05-05T03:38:23.489Z,91.86
2023-05-05T03:40:50.875Z,95.63
2023-05-05T03:43:19.666Z,93.70
2023-05-05T03:45:47.583Z,95.66
2023-05-05T03:48:15.206Z,93.09
2023-05-05T03:50:45.130Z,87.98
2023-05-05T03:53:13.109Z,88.60
2023-05-05T03:55:41.390Z,89.71
2023-05-05T03:58:08.530Z,88.39
2023-05-05T04:00:36.103Z,90.25
2023-05-05T04:03:04.278Z,92.78
2023-05-05T04:05:31.556Z,93.31
2023-05-05T04:07:59.109Z,93.11
2023-05-05T04:10:26.786Z,92.24
2023-05-05T04:12:54.440Z,91.64
2023-05-05T04:15:22.123Z,93.08
2023-05-05T04:17:50.029Z,93.77
2023-05-05T04:20:17.881Z,92.34
2023-05-05T04:22:45.068Z,92.55
2023-05-05T04:25:12.600Z,90.49
2023-05-05T04:27:39.784Z,89.93
2023-05-05T04:30:08.478Z,86.70
2023-05-05T04:32:37.141Z,89.86
2023-05-05T04:35:05.205Z,90.20
2023-05-05T04:37:32.681Z,90.97
2023-05-05T04:40:00.537Z,87.73
2023-05-05T04:42:28.530Z,86.85
2023-05-05T04:44:55.854Z,80.15
2023-05-05T04:47:23.627Z,76.19
2023-05-05T04:49:51.331Z,79.88
2023-05-05T04:52:18.770Z,77.97
2023-05-05T04:54:46.253Z,77.14
2023-05-05T04:57:13.406Z,72.09
2023-05-05T04:59:41.644Z,69.71
2023-05-05T05:02:09.300Z,68.80
2023-05-05T05:04:36.688Z,68.05
2023-05-05T05:07:03.989Z,71.09
2023-05-05T05:09:31.723Z,72.58
2023-05-05T05:12:00.701Z,72.97
2023-05-05T05:14:28.341Z,73.45
2023-05-05T05:16:56.136Z,72.87
2023-05-05T05:19:23.788Z,73.79
2023-05-05T05:21:51.000Z,73.56
2023-05-05T05:24:18.775Z,72.84
2023-05-05T05:26:47.207Z,72.28
2023-05-05T05:29:14.814Z,70.10
2023-05-05T05:31:42.559Z,66.09
2023-05-05T05:34:12.606Z,57.83
2023-05-05T05:36:40.920Z,46.82
2023-05-05T05:39:08.502Z,43.00
2023-05-05T05:41:35.794Z,40.06
2023-05-05T05:44:03.505Z,37.10
2023-05-05T05:46:31.661Z,37.00
2023-05-05T05:48:59.056Z,32.75
2023-05-05T05:51:26.617Z,38.42
2023-05-05T05:53:55.413Z,37.44
2023-05-05T05:56:23.625Z,38.46
2023-05-05T05:58:51.937Z,37.89
2023-05-05T06:01:19.950Z,37.27
2023-05-05T06:03:47.927Z,37.17
2023-05-05T06:06:16.508Z,37.63
2023-05-05T06:08:44.696Z,38.03
2023-05-05T06:11:12.405Z,39.97
2023-05-05T06:13:40.030Z,37.25
2023-05-05T06:16:08.061Z,35.35
2023-05-05T06:18:36.956Z,34.32
2023-05-05T06:21:04.618Z,32.52
2023-05-05T06:23:32.133Z,32.83
2023-05-05T06:26:00.066Z,31.30
2023-05-05T06:28:27.483Z,31.91
2023-05-05T06:30:54.709Z,33.83
2023-05-05T06:33:22.443Z,33.29
2023-05-05T06:35:52.074Z,34.43
2023-05-05T06:38:19.403Z,32.26
2023-05-05T06:40:50.065Z,37.00
2023-05-05T06:43:17.700Z,33.52
2023-05-05T06:45:46.126Z,32.62
2023-05-05T06:48:13.988Z,34.61
2023-05-05T06:50:42.277Z,34.27
2023-05-05T06:53:09.679Z,36.41
2023-05-05T06:55:37.406Z,37.60
2023-05-05T06:58:04.649Z,32.91
2023-05-05T07:00:32.132Z,34.09
2023-05-05T07:02:59.968Z,36.61
2023-05-05T07:05:27.369Z,31.60
2023-05-05T07:07:55.674Z,32.76
2023-05-05T07:10:24.384Z,36.96
2023-05-05T07:12:52.575Z,37.16
2023-05-05T07:15:28.610Z,33.79
2023-05-05T07:21:27.799Z,30.76
2023-05-05T07:23:55.348Z,30.37
2023-05-05T07:26:22.655Z,31.32
2023-05-05T07:28:52.143Z,32.14
2023-05-05T07:31:20.128Z,31.86
2023-05-05T07:37:06.449Z,30.53
2023-05-05T07:39:34.316Z,32.10
2023-05-05T07:45:31.905Z,34.53
2023-05-05T07:47:59.639Z,33.66
2023-05-05T07:50:27.244Z,33.11
2023-05-05T07:53:02.346Z,32.27
2023-05-05T07:55:33.965Z,31.00
2023-05-05T07:58:01.342Z,31.30
2023-05-05T08:00:28.508Z,35.49
2023-05-05T08:02:56.134Z,32.58
2023-05-05T08:05:23.652Z,34.51
2023-05-05T08:07:50.947Z,34.48
2023-05-05T08:10:18.713Z,33.37
2023-05-05T08:12:46.022Z,31.97
2023-05-05T08:15:13.350Z,33.74
2023-05-05T08:17:49.196Z,34.81
2023-05-05T08:20:17.856Z,33.04
2023-05-05T08:22:45.895Z,33.73
2023-05-05T08:25:14.241Z,33.16
2023-05-05T08:27:42.562Z,34.23
2023-05-05T08:30:10.837Z,33.31
2023-05-05T08:32:38.716Z,36.11
2023-05-05T08:35:07.278Z,36.60
2023-05-05T08:37:37.943Z,35.24
2023-05-05T08:40:06.192Z,34.42
2023-05-05T08:42:38.502Z,35.34
2023-05-05T08:45:08.929Z,35.67
2023-05-05T08:47:37.361Z,35.77
2023-05-05T08:50:08.087Z,33.99
2023-05-05T08:52:41.419Z,36.62
2023-05-05T08:55:24.585Z,34.13
2023-05-05T08:57:57.018Z,37.49
2023-05-05T09:00:27.251Z,36.85
2023-05-05T09:02:57.699Z,35.61
2023-05-05T09:05:25.936Z,36.98
2023-05-05T09:07:53.184Z,39.27
2023-05-05T09:13:54.985Z,41.79
2023-05-05T09:16:23.197Z,44.00
2023-05-05T09:18:50.532Z,43.39
2023-05-05T09:21:25.459Z,41.34
2023-05-05T09:24:12.477Z,42.02
2023-05-05T09:26:44.184Z,41.27
2023-05-05T09:29:19.617Z,43.05
2023-05-05T09:32:05.704Z,42.25
2023-05-05T09:34:35.199Z,41.16
2023-05-05T09:37:02.542Z,39.33
2023-05-05T09:39:29.942Z,37.66
2023-05-05T09:41:58.648Z,35.37
2023-05-05T09:44:40.159Z,36.04
2023-05-05T09:47:18.093Z,36.02
2023-05-05T09:49:59.259Z,33.67
2023-05-05T09:52:26.868Z,33.22
2023-05-05T09:54:58.233Z,33.32
2023-05-05T09:57:33.422Z,33.60
2023-05-05T10:00:02.553Z,36.83
2023-05-05T10:02:35.129Z,37.75
2023-05-05T10:05:13.105Z,39.04
2023-05-05T10:07:42.275Z,38.17
2023-05-05T10:10:15.094Z,38.03
2023-05-05T10:12:43.208Z,38.06
2023-05-05T10:15:12.063Z,38.61
2023-05-05T10:18:02.450Z,39.84
2023-05-05T10:20:36.672Z,43.51
2023-05-05T10:23:06.393Z,42.90
2023-05-05T10:25:35.918Z,44.21
2023-05-05T10:28:06.934Z,45.65
2023-05-05T10:30:39.766Z,45.97
2023-05-05T10:33:30.362Z,45.40
2023-05-05T10:36:02.556Z,44.87
2023-05-05T10:38:34.119Z,44.17
2023-05-05T10:41:06.772Z,44.90
2023-05-05T10:43:58.603Z,44.88
2023-05-05T10:46:29.726Z,42.55
2023-05-05T10:49:25.967Z,40.76
2023-05-05T10:52:08.985Z,39.49
2023-05-05T10:54:42.460Z,40.76
2023-05-05T10:57:22.745Z,40.86
2023-05-05T10:59:51.445Z,40.29
2023-05-05T11:02:48.078Z,40.32
2023-05-05T11:05:22.755Z,41.93
2023-05-05T11:07:56.838Z,41.11
2023-05-05T11:10:32.102Z,41.81
2023-05-05T11:13:19.897Z,42.43
2023-05-05T11:15:54.379Z,42.37
2023-05-05T11:18:36.520Z,42.40
2023-05-05T11:21:07.737Z,43.18
2023-05-05T11:23:35.374Z,42.89
2023-05-05T11:26:02.703Z,43.11
2023-05-05T11:28:31.547Z,43.17
2023-05-05T11:31:01.978Z,42.23
2023-05-05T11:33:29.277Z,41.78
2023-05-05T11:36:07.333Z,43.15
2023-05-05T11:39:02.793Z,42.36
2023-05-05T11:41:32.769Z,41.32
2023-05-05T11:44:14.624Z,41.30
2023-05-05T11:47:04.468Z,41.74
2023-05-05T11:49:33.008Z,42.03
2023-05-05T11:52:03.602Z,41.91
2023-05-05T11:54:31.883Z,43.14
2023-05-05T11:57:07.832Z,42.66
2023-05-05T11:59:37.562Z,41.81
2023-05-05T12:02:05.505Z,41.21
2023-05-05T12:04:34.891Z,41.64
2023-05-05T12:07:02.452Z,41.02
2023-05-05T12:09:30.121Z,42.09
2023-05-05T12:11:59.785Z,41.12
2023-05-05T12:14:27.766Z,41.47
2023-05-05T12:16:56.154Z,42.16
2023-05-05T12:19:24.766Z,42.50
2023-05-05T12:21:54.308Z,41.13
2023-05-05T12:24:21.778Z,41.15
2023-05-05T12:26:49.345Z,40.54
2023-05-05T12:29:28.972Z,41.17
2023-05-05T12:31:58.160Z,39.68
2023-05-05T12:34:26.452Z,39.39
2023-05-05T12:36:53.759Z,41.42
2023-05-05T12:39:21.513Z,41.05
2023-05-05T12:41:49.363Z,41.02
2023-05-05T12:47:49.892Z,41.04
2023-05-05T12:50:32.749Z,40.21
2023-05-05T12:53:00.146Z,41.41
2023-05-05T12:55:37.680Z,40.79
2023-05-05T12:58:05.070Z,41.31
2023-05-05T13:00:32.640Z,41.04
2023-05-05T13:03:00.150Z,39.87
2023-05-05T13:05:32.791Z,40.48
2023-05-05T13:08:00.512Z,40.49
2023-05-05T13:10:31.458Z,41.07
2023-05-05T13:12:59.148Z,40.88
2023-05-05T13:15:27.649Z,41.97
2023-05-05T13:18:01.873Z,41.25
2023-05-05T13:20:29.690Z,41.49
2023-05-05T13:22:57.448Z,39.78
2023-05-05T13:25:25.197Z,38.96
2023-05-05T13:27:53.099Z,40.46
2023-05-05T13:30:20.936Z,40.50
2023-05-05T13:32:48.356Z,38.96
2023-05-05T13:35:17.272Z,38.52
2023-05-05T13:37:46.750Z,38.48
2023-05-05T13:40:14.298Z,38.92
2023-05-05T13:42:42.035Z,38.02
2023-05-05T13:45:10.053Z,38.56
2023-05-05T13:47:38.112Z,39.52
2023-05-05T13:50:06.335Z,39.15
2023-05-05T13:52:33.927Z,39.00
2023-05-05T13:55:01.458Z,39.71
2023-05-05T13:57:29.339Z,39.20
2023-05-05T13:59:56.903Z,39.67
2023-05-05T14:02:24.199Z,39.75
2023-05-05T14:04:51.829Z,38.80
2023-05-05T14:07:19.170Z,39.00
2023-05-05T14:09:46.392Z,39.22
2023-05-05T14:12:14.046Z,39.52
2023-05-05T14:14:41.404Z,38.29
2023-05-05T14:17:08.922Z,39.13
2023-05-05T14:19:36.624Z,38.75
2023-05-05T14:22:04.267Z,38.64
2023-05-05T14:24:31.574Z,38.09
2023-05-05T14:26:59.041Z,38.00
2023-05-05T14:29:27.719Z,39.29
2023-05-05T14:31:55.030Z,39.03
2023-05-05T14:34:23.064Z,38.25
2023-05-05T14:36:50.923Z,39.18
2023-05-05T14:39:18.333Z,38.32
2023-05-05T14:41:46.635Z,38.75
2023-05-05T14:44:14.084Z,38.57
2023-05-05T14:46:41.738Z,38.73
2023-05-05T14:49:10.244Z,38.84
2023-05-05T14:51:37.531Z,37.43
2023-05-05T14:54:09.322Z,38.60
2023-05-05T14:56:42.176Z,38.85
2023-05-05T14:59:09.948Z,39.06
2023-05-05T15:01:37.391Z,39.74
2023-05-05T15:04:05.465Z,38.86
2023-05-05T15:06:32.878Z,38.43
2023-05-05T15:09:02.111Z,37.86
2023-05-05T15:11:29.821Z,38.10
2023-05-05T15:13:57.311Z,38.70
2023-05-05T15:16:24.887Z,38.15
2023-05-05T15:18:52.769Z,37.65
2023-05-05T15:21:23.250Z,39.22
2023-05-05T15:23:50.822Z,38.95
2023-05-05T15:26:18.829Z,37.81
2023-05-05T15:28:48.197Z,38.27
2023-05-05T15:31:17.157Z,39.19
2023-05-05T15:33:46.853Z,39.18
2023-05-05T15:36:22.894Z,38.96
2023-05-05T15:38:51.038Z,38.89
2023-05-05T15:41:18.573Z,39.21
2023-05-05T15:43:45.965Z,39.87
2023-05-05T15:46:13.707Z,39.62
2023-05-05T15:48:41.335Z,39.19
2023-05-05T15:51:08.798Z,39.16
2023-05-05T15:53:36.553Z,39.54
2023-05-05T15:56:06.270Z,40.00
2023-05-05T15:58:33.788Z,40.90
2023-05-05T16:01:11.966Z,39.60
2023-05-05T16:03:43.552Z,39.80
2023-05-05T16:06:13.924Z,39.87
2023-05-05T16:08:41.689Z,39.99
2023-05-05T16:11:09.996Z,40.27
2023-05-05T16:13:39.243Z,39.85
2023-05-05T16:16:07.184Z,39.71
2023-05-05T16:18:34.433Z,39.70
2023-05-05T16:21:02.683Z,40.47
2023-05-05T16:23:30.582Z,39.11
2023-05-05T16:25:57.942Z,39.79
2023-05-05T16:28:26.105Z,40.06
2023-05-05T16:30:53.913Z,40.63
2023-05-05T16:33:21.269Z,39.94
2023-05-05T16:35:48.929Z,40.03
2023-05-05T16:38:16.787Z,40.00
2023-05-05T16:40:44.563Z,40.28
2023-05-05T16:43:12.054Z,40.09
2023-05-05T16:45:39.685Z,40.53
2023-05-05T16:48:09.066Z,39.94
2023-05-05T16:50:37.351Z,39.95
2023-05-05T16:53:09.079Z,39.75
2023-05-05T16:55:37.000Z,39.88
2023-05-05T16:58:04.552Z,40.19
2023-05-05T17:00:31.823Z,40.50
2023-05-05T17:02:59.279Z,40.42
2023-05-05T17:05:27.056Z,40.93
2023-05-05T17:07:54.558Z,41.25
2023-05-05T17:10:21.996Z,41.44
2023-05-05T17:12:49.794Z,42.14
2023-05-05T17:15:17.387Z,41.86
2023-05-05T17:17:44.710Z,42.44
2023-05-05T17:20:14.156Z,42.87
2023-05-05T17:22:41.823Z,42.84
2023-05-05T17:25:10.087Z,43.35
2023-05-05T17:27:38.459Z,43.91
2023-05-05T17:30:06.747Z,44.29
2023-05-05T17:32:34.032Z,43.93
2023-05-05T17:35:01.866Z,44.26
2023-05-05T17:37:29.519Z,44.58
2023-05-05T17:39:56.845Z,44.84
2023-05-05T17:42:27.069Z,45.67
2023-05-05T17:44:54.302Z,46.21
2023-05-05T17:47:22.540Z,47.28
2023-05-05T17:49:51.868Z,48.23
2023-05-05T17:52:19.247Z,48.71
2023-05-05T17:54:46.846Z,49.75
2023-05-05T17:57:16.760Z,50.40
2023-05-05T17:59:44.666Z,51.26
2023-05-05T18:02:12.160Z,51.74
2023-05-05T18:04:39.953Z,52.18
2023-05-05T18:07:07.848Z,53.19
2023-05-05T18:09:35.060Z,53.79
2023-05-05T18:12:03.758Z,54.80
2023-05-05T18:14:32.970Z,55.46
2023-05-05T18:17:00.233Z,56.35
2023-05-05T18:19:27.835Z,56.88
2023-05-05T18:21:55.473Z,57.31
2023-05-05T18:24:23.004Z,57.78
2023-05-05T18:26:52.073Z,58.52
2023-05-05T18:29:21.603Z,58.96
2023-05-05T18:31:51.903Z,59.51
2023-05-05T18:34:20.699Z,61.16
2023-05-05T18:36:50.067Z,61.09
2023-05-05T18:39:17.936Z,61.29
2023-05-05T18:41:45.810Z,62.44
2023-05-05T18:44:13.031Z,63.09
2023-05-05T18:46:40.973Z,62.96
2023-05-05T18:49:10.858Z,63.82
2023-05-05T18:51:41.531Z,64.60
2023-05-05T18:54:10.677Z,65.93
2023-05-05T18:56:37.979Z,66.17
2023-05-05T18:59:05.286Z,67.69
2023-05-05T19:01:33.009Z,68.67
2023-05-05T19:04:00.895Z,70.58
2023-05-05T19:06:28.321Z,71.89
2023-05-05T19:08:56.912Z,73.18
2023-05-05T19:11:25.494Z,74.20
2023-05-05T19:13:52.984Z,75.32
2023-05-05T19:16:21.078Z,75.84
2023-05-05T19:18:48.793Z,76.83
2023-05-05T19:21:16.303Z,77.92
2023-05-05T19:23:45.478Z,78.61
2023-05-05T19:26:14.047Z,79.04
2023-05-05T19:28:41.389Z,80.05
2023-05-05T19:31:09.133Z,81.07
2023-05-05T19:33:36.661Z,81.67
2023-05-05T19:36:04.221Z,82.67
2023-05-05T19:38:32.018Z,82.40
2023-05-05T19:40:59.268Z,81.66
2023-05-05T19:43:26.637Z,83.20
2023-05-05T19:45:54.394Z,83.35
2023-05-05T19:48:22.436Z,85.29
2023-05-05T19:50:49.915Z,84.63
2023-05-05T19:53:17.799Z,84.68
2023-05-05T19:55:45.046Z,84.64
2023-05-05T19:58:12.738Z,85.20
2023-05-05T20:00:43.064Z,85.69
2023-05-05T20:03:11.204Z,87.30
2023-05-05T20:05:38.690Z,87.51
2023-05-05T20:08:06.306Z,88.04
2023-05-05T20:10:34.654Z,88.86
2023-05-05T20:13:01.993Z,88.93
2023-05-05T20:15:30.672Z,89.05
2023-05-05T20:17:58.988Z,89.28
2023-05-05T20:20:26.415Z,89.16
2023-05-05T20:22:53.837Z,89.28
2023-05-05T20:25:28.078Z,89.64
2023-05-05T20:27:55.433Z,89.97
2023-05-05T20:30:23.676Z,90.10
2023-05-05T20:32:51.474Z,90.98
2023-05-05T20:35:18.802Z,90.65
2023-05-05T20:37:46.402Z,91.54
2023-05-05T20:40:14.036Z,91.45
2023-05-05T20:42:41.267Z,91.46
2023-05-05T20:45:10.634Z,91.38
2023-05-05T20:47:38.340Z,92.90
2023-05-05T20:50:06.510Z,93.59
2023-05-05T20:52:34.765Z,93.46
2023-05-05T20:55:02.259Z,92.90
2023-05-05T20:57:29.601Z,93.28
2023-05-05T20:59:56.893Z,92.43
2023-05-05T21:02:32.085Z,92.91
2023-05-05T21:05:03.141Z,93.70
2023-05-05T21:07:32.511Z,92.56
2023-05-05T21:10:00.901Z,93.33
2023-05-05T21:12:29.588Z,94.64
2023-05-05T21:14:59.951Z,95.64
2023-05-05T21:17:27.624Z,96.35
2023-05-05T21:19:55.362Z,96.80
2023-05-05T21:22:22.975Z,97.78
2023-05-05T21:24:51.281Z,98.05
2023-05-05T21:27:18.637Z,99.08
2023-05-05T21:29:46.438Z,99.46
2023-05-05T21:32:13.651Z,100.00
2023-05-05T21:34:41.029Z,100.00
2023-05-05T21:37:08.526Z,100.00
2023-05-05T21:39:35.779Z,100.00
2023-05-05T21:42:03.154Z,100.00
2023-05-05T21:44:30.868Z,100.00
2023-05-05T21:46:57.962Z,100.00
2023-05-05T21:49:25.360Z,100.00
2023-05-05T21:51:52.808Z,100.00
2023-05-05T21:57:50.872Z,100.00
2023-05-05T22:00:18.482Z,100.00
2023-05-05T22:02:46.085Z,100.00
2023-05-05T22:05:13.518Z,100.00
2023-05-05T22:07:40.902Z,100.00
2023-05-05T22:10:09.186Z,100.00
2023-05-05T22:12:36.426Z,100.00
2023-05-05T22:15:03.796Z,100.00
2023-05-05T22:17:31.300Z,100.00
2023-05-05T22:19:58.528Z,100.00
2023-05-05T22:25:57.019Z,100.00
2023-05-05T22:28:24.564Z,100.00
2023-05-05T22:30:52.035Z,100.00
2023-05-05T22:33:19.249Z,100.00
2023-05-05T22:35:46.798Z,100.00
2023-05-05T22:38:14.164Z,100.00
2023-05-05T22:40:41.416Z,100.00
2023-05-05T22:43:08.966Z,100.00
2023-05-05T22:45:36.164Z,100.00
2023-05-05T22:48:03.887Z,100.00
2023-05-05T22:50:31.654Z,100.00
2023-05-05T22:52:58.901Z,100.00
2023-05-05T22:55:26.857Z,100.00
2023-05-05T22:57:54.462Z,100.00
2023-05-05T23:00:21.591Z,100.00
2023-05-05T23:02:49.049Z,100.00
2023-05-05T23:05:16.867Z,100.00
2023-05-05T23:07:44.117Z,100.00
2023-05-05T23:10:11.532Z,100.00
2023-05-05T23:12:39.051Z,100.00
2023-05-05T23:15:08.203Z,100.00
2023-05-05T23:17:35.687Z,100.00
2023-05-05T23:20:04.396Z,100.00
2023-05-05T23:22:31.835Z,100.00
2023-05-05T23:24:59.081Z,100.00
2023-05-05T23:27:26.636Z,100.00
2023-05-05T23:29:53.895Z,100.00
2023-05-05T23:32:21.427Z,100.00
2023-05-05T23:34:49.234Z,100.00
2023-05-05T23:37:16.420Z,100.00
2023-05-05T23:39:43.615Z,100.00
2023-05-05T23:42:11.318Z,100.00
2023-05-05T23:44:38.527Z,100.00
2023-05-05T23:47:06.201Z,100.00
2023-05-05T23:49:33.657Z,100.00
2023-05-05T23:52:00.965Z,100.00
2023-05-05T23:54:28.170Z,100.00
2023-05-05T23:56:55.647Z,100.00
2023-05-05T23:59:22.992Z,100.00
